createdAt,value
2017-05-30T00:02:25.119Z,82.20
2017-05-30T00:04:53.342Z,83.20
2017-05-30T00:07:21.560Z,83.40
2017-05-30T00:09:49.780Z,82.40
2017-05-30T00:12:17.995Z,83.50
2017-05-30T00:14:46.216Z,83.90
2017-05-30T00:17:14.439Z,83.90
2017-05-30T00:19:42.660Z,85.40
2017-05-30T00:22:10.875Z,85.90
2017-05-30T00:24:39.096Z,85.40
2017-05-30T00:27:07.316Z,85.90
2017-05-30T00:29:35.536Z,85.50
2017-05-30T00:32:03.756Z,86.10
2017-05-30T00:34:31.976Z,86.40
2017-05-30T00:37:00.190Z,85.40
2017-05-30T00:39:28.411Z,84.80
2017-05-30T00:41:56.623Z,81.50
2017-05-30T00:44:24.857Z,79.50
2017-05-30T00:46:53.063Z,79.00
2017-05-30T00:49:21.356Z,75.30
2017-05-30T00:51:49.526Z,76.60
2017-05-30T00:54:17.742Z,77.20
2017-05-30T00:56:45.958Z,76.00
2017-05-30T00:59:14.179Z,75.50
2017-05-30T01:01:42.402Z,76.70
2017-05-30T01:04:10.604Z,76.60
2017-05-30T01:06:38.841Z,75.90
2017-05-30T01:09:07.071Z,75.30
2017-05-30T01:11:35.282Z,74.90
2017-05-30T01:14:03.499Z,76.40
2017-05-30T01:16:31.723Z,76.10
2017-05-30T01:18:59.944Z,76.20
2017-05-30T01:21:28.173Z,76.10
2017-05-30T01:23:56.383Z,76.70
2017-05-30T01:26:24.624Z,78.10
2017-05-30T01:28:52.835Z,78.90
2017-05-30T01:31:21.052Z,79.30
2017-05-30T01:33:49.267Z,81.60
2017-05-30T01:36:17.503Z,84.00
2017-05-30T01:38:45.723Z,84.50
2017-05-30T01:41:13.943Z,84.70
2017-05-30T01:43:42.160Z,87.60
2017-05-30T01:46:10.378Z,88.30
2017-05-30T01:48:38.595Z,87.50
2017-05-30T01:51:06.808Z,86.60
2017-05-30T01:53:35.033Z,86.00
2017-05-30T01:56:03.247Z,85.20
2017-05-30T01:58:32.038Z,83.90
2017-05-30T02:01:00.258Z,83.50
2017-05-30T02:03:28.467Z,84.00
2017-05-30T02:05:56.691Z,84.30
2017-05-30T02:08:24.907Z,84.90
2017-05-30T02:10:53.144Z,86.00
2017-05-30T02:13:21.363Z,86.60
2017-05-30T02:15:49.581Z,86.90
2017-05-30T02:18:17.803Z,86.80
2017-05-30T02:20:46.028Z,87.20
2017-05-30T02:23:14.246Z,88.00
2017-05-30T02:25:42.478Z,89.80
2017-05-30T02:28:10.684Z,90.00
2017-05-30T02:30:38.907Z,89.60
2017-05-30T02:33:07.125Z,89.20
2017-05-30T02:35:35.352Z,88.60
2017-05-30T02:38:03.565Z,88.80
2017-05-30T02:40:31.796Z,88.90
2017-05-30T02:43:00.012Z,87.60
2017-05-30T02:45:28.219Z,87.40
2017-05-30T02:47:56.444Z,87.90
2017-05-30T02:50:24.655Z,88.70
2017-05-30T02:52:52.875Z,88.70
2017-05-30T02:55:21.096Z,88.60
2017-05-30T02:57:49.312Z,90.00
2017-05-30T03:00:17.527Z,89.60
2017-05-30T03:02:45.752Z,89.20
2017-05-30T03:05:13.975Z,90.40
2017-05-30T03:07:42.201Z,90.30
2017-05-30T03:10:10.423Z,90.10
2017-05-30T03:12:38.653Z,90.30
2017-05-30T03:15:06.871Z,90.40
2017-05-30T03:17:35.087Z,90.20
2017-05-30T03:20:03.309Z,89.90
2017-05-30T03:22:31.523Z,89.40
2017-05-30T03:24:59.747Z,89.60
2017-05-30T03:27:27.963Z,89.00
2017-05-30T03:29:56.182Z,89.10
2017-05-30T03:32:24.390Z,89.00
2017-05-30T03:34:52.612Z,89.20
2017-05-30T03:37:20.836Z,89.00
2017-05-30T03:39:49.060Z,88.90
2017-05-30T03:42:17.282Z,89.00
2017-05-30T03:44:45.566Z,89.20
2017-05-30T03:47:13.775Z,89.20
2017-05-30T03:49:41.984Z,88.80
2017-05-30T03:52:10.200Z,88.80
2017-05-30T03:54:38.415Z,87.90
2017-05-30T03:57:06.643Z,87.20
2017-05-30T03:59:34.860Z,87.00
2017-05-30T04:02:03.079Z,87.40
2017-05-30T04:04:31.296Z,87.80
2017-05-30T04:06:59.509Z,87.00
2017-05-30T04:09:27.728Z,86.60
2017-05-30T04:11:55.945Z,86.20
2017-05-30T04:14:24.168Z,86.80
2017-05-30T04:16:52.391Z,86.70
2017-05-30T04:19:20.614Z,86.30
2017-05-30T04:21:48.857Z,87.10
2017-05-30T04:24:17.072Z,87.60
2017-05-30T04:26:45.289Z,88.10
2017-05-30T04:29:13.507Z,87.90
2017-05-30T04:31:41.726Z,88.30
2017-05-30T04:34:09.952Z,87.30
2017-05-30T04:36:38.167Z,86.30
2017-05-30T04:39:06.394Z,84.80
2017-05-30T04:41:34.611Z,83.80
2017-05-30T04:44:02.827Z,83.70
2017-05-30T04:46:31.056Z,83.90
2017-05-30T04:48:59.278Z,84.40
2017-05-30T04:51:27.494Z,84.40
2017-05-30T04:53:55.716Z,86.00
2017-05-30T04:56:23.927Z,86.60
2017-05-30T04:58:52.152Z,85.80
2017-05-30T05:01:20.363Z,85.00
2017-05-30T05:03:48.574Z,84.60
2017-05-30T05:06:16.799Z,84.30
2017-05-30T05:08:45.013Z,84.30
2017-05-30T05:11:13.249Z,83.90
2017-05-30T05:13:41.478Z,84.60
2017-05-30T05:16:09.700Z,84.70
2017-05-30T05:18:37.922Z,84.20
2017-05-30T05:21:06.139Z,84.40
2017-05-30T05:23:34.359Z,84.00
2017-05-30T05:26:02.591Z,83.50
2017-05-30T05:28:30.816Z,82.80
2017-05-30T05:30:59.036Z,83.60
2017-05-30T05:33:27.247Z,83.90
2017-05-30T05:35:55.487Z,83.60
2017-05-30T05:38:23.695Z,83.20
2017-05-30T05:40:51.912Z,82.60
2017-05-30T05:43:20.131Z,82.30
2017-05-30T05:45:48.354Z,82.10
2017-05-30T05:48:16.567Z,80.10
2017-05-30T05:50:44.783Z,80.90
2017-05-30T05:53:13.008Z,80.90
2017-05-30T05:55:41.230Z,83.60
2017-05-30T05:58:09.459Z,85.80
2017-05-30T06:00:37.684Z,86.80
2017-05-30T06:03:05.904Z,87.80
2017-05-30T06:05:34.132Z,87.70
2017-05-30T06:08:02.375Z,88.90
2017-05-30T06:10:30.602Z,88.50
2017-05-30T06:12:58.828Z,88.00
2017-05-30T06:15:27.045Z,87.40
2017-05-30T06:17:55.260Z,88.40
2017-05-30T06:20:23.492Z,89.20
2017-05-30T06:22:50.948Z,89.20
2017-05-30T06:25:19.168Z,89.30
2017-05-30T06:27:47.379Z,89.20
2017-05-30T06:30:15.600Z,85.00
2017-05-30T06:32:43.807Z,87.60
2017-05-30T06:35:12.031Z,84.90
2017-05-30T06:37:40.244Z,83.90
2017-05-30T06:40:08.463Z,85.10
2017-05-30T06:42:36.683Z,86.00
2017-05-30T06:45:04.904Z,84.90
2017-05-30T06:47:33.123Z,85.70
2017-05-30T06:50:01.371Z,85.90
2017-05-30T06:52:29.583Z,87.60
2017-05-30T06:54:57.796Z,87.00
2017-05-30T06:57:26.023Z,86.90
2017-05-30T06:59:54.249Z,87.10
2017-05-30T07:02:22.467Z,86.50
2017-05-30T07:04:50.692Z,86.70
2017-05-30T07:07:18.916Z,86.50
2017-05-30T07:09:47.131Z,86.80
2017-05-30T07:12:15.355Z,86.10
2017-05-30T07:14:43.568Z,85.50
2017-05-30T07:17:11.793Z,86.10
2017-05-30T07:19:40.007Z,84.70
2017-05-30T07:22:08.233Z,84.30
2017-05-30T07:24:36.452Z,84.00
2017-05-30T07:27:04.685Z,84.30
2017-05-30T07:29:32.900Z,83.90
2017-05-30T07:32:01.144Z,81.00
2017-05-30T07:34:29.364Z,80.70
2017-05-30T07:36:58.380Z,82.30
2017-05-30T07:39:26.603Z,79.10
2017-05-30T07:41:54.829Z,82.70
2017-05-30T07:44:23.051Z,83.10
2017-05-30T07:46:51.271Z,79.80
2017-05-30T07:49:19.496Z,80.20
2017-05-30T07:51:47.772Z,78.30
2017-05-30T07:54:15.959Z,79.70
2017-05-30T07:56:44.172Z,81.20
2017-05-30T07:59:12.388Z,79.80
2017-05-30T08:01:40.603Z,82.20
2017-05-30T08:04:08.848Z,80.70
2017-05-30T08:06:37.084Z,81.40
2017-05-30T08:09:05.291Z,83.00
2017-05-30T08:11:33.523Z,83.40
2017-05-30T08:14:01.747Z,81.10
2017-05-30T08:16:29.971Z,80.20
2017-05-30T08:18:58.188Z,80.00
2017-05-30T08:21:26.415Z,79.30
2017-05-30T08:23:54.632Z,78.80
2017-05-30T08:26:22.864Z,75.10
2017-05-30T08:28:51.082Z,73.80
2017-05-30T08:31:19.311Z,70.50
2017-05-30T08:33:47.524Z,68.70
2017-05-30T08:36:15.746Z,69.70
2017-05-30T08:38:43.960Z,66.50
2017-05-30T08:41:12.179Z,66.60
2017-05-30T08:43:40.400Z,67.10
2017-05-30T08:46:08.635Z,67.90
2017-05-30T08:48:36.863Z,62.70
2017-05-30T08:51:05.079Z,61.80
2017-05-30T08:53:33.312Z,62.70
2017-05-30T08:56:01.523Z,59.30
2017-05-30T08:58:29.739Z,59.70
2017-05-30T09:00:57.954Z,57.20
2017-05-30T09:03:26.176Z,55.20
2017-05-30T09:05:54.389Z,55.50
2017-05-30T09:08:22.616Z,61.20
2017-05-30T09:10:50.831Z,60.30
2017-05-30T09:13:19.053Z,58.40
2017-05-30T09:15:47.268Z,57.60
2017-05-30T09:18:15.491Z,58.70
2017-05-30T09:20:43.719Z,56.60
2017-05-30T09:23:11.974Z,54.40
2017-05-30T09:25:40.193Z,54.30
2017-05-30T09:28:08.436Z,54.70
2017-05-30T09:30:36.658Z,52.10
2017-05-30T09:33:04.871Z,51.50
2017-05-30T09:35:33.091Z,51.10
2017-05-30T09:38:01.313Z,49.50
2017-05-30T09:40:29.533Z,45.20
2017-05-30T09:42:57.747Z,45.60
2017-05-30T09:45:25.967Z,48.40
2017-05-30T09:47:54.189Z,44.40
2017-05-30T09:50:22.411Z,45.50
2017-05-30T09:52:50.628Z,45.60
2017-05-30T09:55:18.853Z,46.60
2017-05-30T09:57:47.075Z,45.60
2017-05-30T10:00:15.299Z,50.10
2017-05-30T10:02:43.518Z,44.50
2017-05-30T10:05:11.768Z,46.90
2017-05-30T10:07:39.979Z,43.20
2017-05-30T10:10:08.195Z,42.40
2017-05-30T10:12:36.414Z,44.10
2017-05-30T10:15:04.636Z,44.50
2017-05-30T10:17:32.859Z,45.30
2017-05-30T10:20:01.079Z,46.90
2017-05-30T10:22:29.299Z,46.90
2017-05-30T10:24:57.517Z,43.90
2017-05-30T10:27:25.740Z,45.10
2017-05-30T10:29:53.959Z,45.40
2017-05-30T10:32:22.184Z,44.30
2017-05-30T10:34:50.407Z,42.90
2017-05-30T10:37:18.628Z,42.30
2017-05-30T10:39:46.848Z,39.50
2017-05-30T10:42:15.071Z,38.80
2017-05-30T10:44:43.281Z,38.60
2017-05-30T10:47:11.503Z,40.80
2017-05-30T10:49:39.729Z,38.40
2017-05-30T10:52:07.954Z,41.30
2017-05-30T10:54:36.187Z,41.50
2017-05-30T10:57:04.407Z,39.10
2017-05-30T10:59:32.639Z,36.30
2017-05-30T11:02:00.851Z,40.10
2017-05-30T11:04:29.083Z,39.80
2017-05-30T11:06:57.307Z,42.60
2017-05-30T11:09:25.529Z,44.80
2017-05-30T11:11:53.744Z,47.60
2017-05-30T11:14:21.974Z,44.50
2017-05-30T11:16:50.191Z,42.70
2017-05-30T11:19:18.411Z,43.70
2017-05-30T11:21:46.632Z,44.90
2017-05-30T11:24:14.855Z,42.50
2017-05-30T11:26:43.075Z,41.60
2017-05-30T11:29:11.304Z,38.90
2017-05-30T11:31:39.520Z,37.10
2017-05-30T11:34:07.743Z,35.10
2017-05-30T11:36:35.963Z,33.60
2017-05-30T11:39:04.183Z,35.70
2017-05-30T11:41:32.411Z,36.00
2017-05-30T11:44:00.631Z,35.00
2017-05-30T11:46:28.859Z,32.90
2017-05-30T11:48:57.076Z,30.80
2017-05-30T11:51:25.295Z,30.50
2017-05-30T11:53:53.574Z,38.80
2017-05-30T11:56:21.841Z,38.50
2017-05-30T11:58:50.058Z,37.20
2017-05-30T12:01:18.281Z,36.80
2017-05-30T12:03:46.505Z,36.70
2017-05-30T12:06:14.733Z,37.80
2017-05-30T12:08:42.956Z,37.60
2017-05-30T12:11:11.181Z,40.90
2017-05-30T12:13:39.407Z,41.50
2017-05-30T12:16:07.634Z,42.50
2017-05-30T12:18:35.851Z,41.50
2017-05-30T12:21:04.078Z,44.40
2017-05-30T12:23:32.300Z,42.10
2017-05-30T12:26:01.003Z,42.80
2017-05-30T12:28:29.222Z,42.20
2017-05-30T12:30:57.436Z,40.40
2017-05-30T12:33:25.671Z,40.60
2017-05-30T12:35:53.891Z,40.20
2017-05-30T12:38:22.124Z,40.50
2017-05-30T12:40:50.339Z,41.40
2017-05-30T12:43:18.567Z,41.80
2017-05-30T12:45:46.791Z,41.90
2017-05-30T12:48:15.012Z,41.40
2017-05-30T12:50:43.244Z,41.10
2017-05-30T12:53:11.456Z,42.00
2017-05-30T12:55:39.680Z,42.50
2017-05-30T12:58:07.894Z,40.70
2017-05-30T13:00:36.129Z,40.00
2017-05-30T13:03:04.347Z,40.90
2017-05-30T13:05:32.578Z,41.70
2017-05-30T13:08:00.787Z,39.60
2017-05-30T13:10:29.024Z,40.00
2017-05-30T13:12:57.243Z,40.20
2017-05-30T13:15:25.473Z,40.90
2017-05-30T13:17:53.679Z,39.00
2017-05-30T13:20:21.910Z,35.50
2017-05-30T13:22:50.122Z,36.60
2017-05-30T13:25:18.334Z,36.10
2017-05-30T13:27:46.555Z,36.40
2017-05-30T13:30:14.778Z,34.90
2017-05-30T13:32:42.991Z,36.00
2017-05-30T13:35:11.211Z,36.50
2017-05-30T13:37:39.440Z,38.40
2017-05-30T13:40:07.654Z,37.00
2017-05-30T13:42:35.887Z,36.20
2017-05-30T13:45:04.108Z,37.50
2017-05-30T13:47:32.325Z,37.70
2017-05-30T13:50:00.544Z,36.70
2017-05-30T13:52:28.768Z,37.90
2017-05-30T13:54:56.979Z,37.90
2017-05-30T13:57:25.199Z,36.60
2017-05-30T13:59:53.423Z,37.40
2017-05-30T14:02:21.643Z,36.20
2017-05-30T14:04:49.856Z,37.30
2017-05-30T14:07:18.107Z,33.10
2017-05-30T14:09:46.327Z,35.40
2017-05-30T14:12:14.542Z,30.90
2017-05-30T14:14:42.767Z,31.90
2017-05-30T14:17:10.989Z,38.40
2017-05-30T14:19:39.222Z,39.70
2017-05-30T14:22:07.431Z,40.50
2017-05-30T14:24:35.650Z,43.30
2017-05-30T14:27:03.866Z,43.90
2017-05-30T14:29:32.102Z,45.30
2017-05-30T14:32:00.317Z,46.00
2017-05-30T14:34:28.548Z,44.90
2017-05-30T14:36:56.762Z,47.20
2017-05-30T14:39:24.997Z,46.40
2017-05-30T14:41:53.214Z,46.10
2017-05-30T14:44:21.443Z,46.80
2017-05-30T14:46:49.655Z,47.10
2017-05-30T14:49:17.903Z,48.50
2017-05-30T14:51:46.117Z,49.80
2017-05-30T14:54:14.339Z,50.00
2017-05-30T14:56:42.566Z,49.50
2017-05-30T14:59:10.787Z,50.00
2017-05-30T15:01:39.011Z,50.30
2017-05-30T15:04:07.236Z,50.30
2017-05-30T15:06:35.466Z,51.40
2017-05-30T15:09:03.707Z,50.90
2017-05-30T15:11:31.927Z,50.80
2017-05-30T15:14:00.135Z,51.30
2017-05-30T15:16:28.351Z,51.70
2017-05-30T15:18:56.569Z,50.90
2017-05-30T15:21:24.783Z,50.00
2017-05-30T15:23:53.010Z,48.70
2017-05-30T15:26:21.247Z,50.10
2017-05-30T15:28:49.462Z,49.40
2017-05-30T15:31:17.687Z,48.20
2017-05-30T15:33:45.919Z,49.20
2017-05-30T15:36:14.136Z,51.10
2017-05-30T15:38:42.488Z,49.40
2017-05-30T15:41:10.722Z,50.00
2017-05-30T15:43:38.943Z,50.60
2017-05-30T15:46:07.257Z,50.70
2017-05-30T15:48:35.477Z,49.50
2017-05-30T15:51:03.691Z,49.20
2017-05-30T15:53:32.944Z,47.50
2017-05-30T15:56:01.155Z,48.40
2017-05-30T15:58:29.387Z,48.80
2017-05-30T16:00:57.595Z,47.60
2017-05-30T16:03:25.820Z,48.80
2017-05-30T16:05:54.035Z,48.60
2017-05-30T16:08:22.260Z,48.20
2017-05-30T16:10:50.554Z,48.40
2017-05-30T16:13:18.824Z,48.20
2017-05-30T16:15:47.044Z,48.20
2017-05-30T16:18:15.262Z,47.10
2017-05-30T16:20:43.490Z,47.60
2017-05-30T16:23:11.751Z,48.50
2017-05-30T16:25:39.970Z,49.00
2017-05-30T16:28:08.193Z,49.10
2017-05-30T16:30:36.408Z,49.50
2017-05-30T16:33:04.698Z,49.60
2017-05-30T16:35:32.919Z,49.50
2017-05-30T16:38:01.128Z,48.60
2017-05-30T16:40:29.407Z,50.80
2017-05-30T16:42:57.621Z,49.10
2017-05-30T16:45:25.864Z,48.80
2017-05-30T16:47:54.075Z,48.50
2017-05-30T16:50:22.299Z,49.00
2017-05-30T16:52:50.519Z,49.10
2017-05-30T16:55:19.855Z,49.00
2017-05-30T16:57:48.080Z,49.20
2017-05-30T17:00:16.300Z,50.50
2017-05-30T17:02:44.528Z,50.10
2017-05-30T17:05:12.790Z,50.20
2017-05-30T17:07:41.029Z,51.30
2017-05-30T17:10:09.265Z,51.80
2017-05-30T17:12:37.492Z,52.30
2017-05-30T17:15:05.703Z,53.60
2017-05-30T17:17:33.930Z,53.00
2017-05-30T17:20:02.163Z,53.10
2017-05-30T17:22:30.384Z,53.50
2017-05-30T17:24:58.600Z,54.00
2017-05-30T17:27:26.824Z,53.80
2017-05-30T17:29:55.034Z,52.80
2017-05-30T17:32:23.280Z,51.40
2017-05-30T17:34:51.508Z,51.70
2017-05-30T17:37:19.727Z,52.70
2017-05-30T17:39:47.957Z,52.30
2017-05-30T17:42:16.176Z,53.10
2017-05-30T17:44:44.405Z,53.40
2017-05-30T17:47:12.620Z,53.40
2017-05-30T17:49:40.841Z,53.90
2017-05-30T17:52:09.064Z,54.30
2017-05-30T17:54:37.284Z,54.80
2017-05-30T17:57:05.498Z,55.40
2017-05-30T17:59:33.733Z,55.70
2017-05-30T18:02:01.948Z,55.60
2017-05-30T18:04:30.172Z,55.70
2017-05-30T18:06:58.708Z,56.00
2017-05-30T18:09:26.960Z,56.30
2017-05-30T18:11:55.167Z,56.70
2017-05-30T18:14:23.383Z,57.00
2017-05-30T18:16:51.607Z,57.30
2017-05-30T18:19:19.827Z,57.30
2017-05-30T18:21:48.058Z,57.60
2017-05-30T18:24:16.286Z,57.80
2017-05-30T18:26:44.499Z,58.60
2017-05-30T18:29:12.715Z,58.40
2017-05-30T18:31:40.947Z,58.60
2017-05-30T18:34:09.163Z,58.70
2017-05-30T18:36:37.387Z,59.10
2017-05-30T18:39:05.602Z,59.10
2017-05-30T18:41:33.848Z,59.40
2017-05-30T18:44:02.071Z,59.30
2017-05-30T18:46:30.288Z,59.60
2017-05-30T18:48:58.512Z,59.60
2017-05-30T18:51:26.731Z,59.70
2017-05-30T18:53:54.955Z,59.70
2017-05-30T18:56:23.172Z,59.90
2017-05-30T18:58:51.411Z,59.80
2017-05-30T19:01:19.618Z,59.80
2017-05-30T19:03:47.852Z,60.00
2017-05-30T19:06:16.068Z,59.70
2017-05-30T19:08:44.291Z,60.20
2017-05-30T19:11:12.506Z,61.10
2017-05-30T19:13:40.727Z,62.50
2017-05-30T19:16:08.943Z,61.30
2017-05-30T19:18:37.175Z,64.40
2017-05-30T19:21:05.411Z,64.10
2017-05-30T19:23:33.626Z,63.40
2017-05-30T19:26:01.844Z,65.00
2017-05-30T19:28:30.061Z,64.30
2017-05-30T19:30:58.284Z,64.00
2017-05-30T19:33:26.508Z,64.10
2017-05-30T19:35:54.733Z,63.80
2017-05-30T19:38:22.944Z,63.90
2017-05-30T19:40:51.175Z,65.00
2017-05-30T19:43:19.393Z,67.50
2017-05-30T19:45:47.615Z,68.70
2017-05-30T19:48:15.832Z,69.70
2017-05-30T19:50:44.052Z,70.10
2017-05-30T19:53:12.276Z,69.90
2017-05-30T19:55:40.487Z,70.40
2017-05-30T19:58:08.708Z,69.80
2017-05-30T20:00:36.925Z,69.10
2017-05-30T20:03:05.153Z,69.90
2017-05-30T20:05:33.373Z,70.90
2017-05-30T20:08:01.613Z,71.00
2017-05-30T20:10:29.837Z,71.30
2017-05-30T20:12:58.061Z,70.90
2017-05-30T20:15:26.280Z,71.70
2017-05-30T20:17:54.499Z,72.50
2017-05-30T20:20:22.761Z,73.70
2017-05-30T20:22:50.990Z,75.20
2017-05-30T20:25:19.219Z,74.60
2017-05-30T20:27:47.427Z,74.20
2017-05-30T20:30:15.651Z,74.10
2017-05-30T20:32:43.863Z,74.70
2017-05-30T20:35:12.089Z,75.40
2017-05-30T20:37:40.299Z,76.30
2017-05-30T20:40:08.565Z,76.60
2017-05-30T20:42:36.787Z,77.20
2017-05-30T20:45:05.007Z,77.60
2017-05-30T20:47:33.229Z,77.50
2017-05-30T20:50:01.483Z,77.90
2017-05-30T20:52:29.696Z,77.80
2017-05-30T20:54:57.915Z,78.20
2017-05-30T20:57:26.139Z,78.40
2017-05-30T20:59:54.369Z,79.10
2017-05-30T21:02:22.583Z,79.10
2017-05-30T21:04:50.802Z,79.20
2017-05-30T21:07:19.062Z,79.60
2017-05-30T21:09:47.287Z,79.80
2017-05-30T21:12:15.829Z,79.90
2017-05-30T21:14:44.051Z,80.30
2017-05-30T21:17:12.291Z,80.70
2017-05-30T21:19:40.507Z,81.40
2017-05-30T21:22:09.136Z,82.50
2017-05-30T21:24:37.346Z,82.70
2017-05-30T21:27:05.571Z,83.10
2017-05-30T21:29:33.827Z,82.90
2017-05-30T21:32:02.076Z,82.80
2017-05-30T21:34:30.299Z,82.60
2017-05-30T21:36:58.528Z,82.00
2017-05-30T21:39:26.775Z,82.50
2017-05-30T21:41:55.015Z,83.00
2017-05-30T21:44:23.237Z,83.80
2017-05-30T21:46:51.447Z,84.10
2017-05-30T21:49:19.686Z,84.00
2017-05-30T21:51:47.907Z,84.10
2017-05-30T21:54:15.371Z,84.80
2017-05-30T21:56:43.613Z,84.60
2017-05-30T21:59:11.912Z,84.20
2017-05-30T22:01:40.127Z,84.60
2017-05-30T22:04:08.343Z,84.20
2017-05-30T22:06:36.645Z,83.90
2017-05-30T22:09:04.864Z,83.10
2017-05-30T22:11:33.084Z,83.30
2017-05-30T22:14:01.304Z,84.60
2017-05-30T22:16:29.524Z,85.10
2017-05-30T22:18:57.736Z,85.50
2017-05-30T22:21:25.983Z,85.60
2017-05-30T22:23:54.199Z,86.10
2017-05-30T22:26:22.411Z,86.60
2017-05-30T22:28:50.635Z,87.10
2017-05-30T22:31:18.856Z,87.20
2017-05-30T22:33:47.083Z,87.40
2017-05-30T22:36:15.303Z,87.40
2017-05-30T22:38:43.514Z,87.40
2017-05-30T22:41:11.743Z,87.60
2017-05-30T22:43:39.973Z,87.60
2017-05-30T22:46:08.178Z,87.50
2017-05-30T22:48:36.399Z,87.10
2017-05-30T22:51:04.615Z,87.00
2017-05-30T22:53:32.839Z,87.40
2017-05-30T22:56:01.056Z,88.40
2017-05-30T22:58:29.283Z,88.70
2017-05-30T23:00:57.499Z,88.70
2017-05-30T23:03:25.710Z,88.80
2017-05-30T23:05:53.932Z,89.10
2017-05-30T23:08:22.149Z,89.50
2017-05-30T23:10:50.367Z,89.30
2017-05-30T23:13:18.591Z,89.40
2017-05-30T23:15:46.811Z,89.50
2017-05-30T23:18:15.114Z,90.10
2017-05-30T23:20:43.327Z,89.20
2017-05-30T23:23:11.546Z,89.30
2017-05-30T23:25:39.764Z,89.90
2017-05-30T23:28:07.983Z,90.10
2017-05-30T23:30:36.210Z,90.20
2017-05-30T23:33:04.423Z,90.20
2017-05-30T23:35:32.640Z,90.30
2017-05-30T23:38:00.863Z,90.40
2017-05-30T23:40:29.099Z,90.70
2017-05-30T23:42:57.319Z,90.40
2017-05-30T23:45:25.539Z,90.40
2017-05-30T23:47:53.764Z,90.30
2017-05-30T23:50:21.974Z,90.00
2017-05-30T23:52:50.194Z,90.20
2017-05-30T23:55:18.406Z,90.00
2017-05-30T23:57:46.639Z,90.20
